Time;durP1;ratioP1;P1;durP2;ratioP2;P2;SDS_P1;SDS_P2;PMS_P1;PMS_P2;Temp;Humidity;BMP_temperature;BMP_pressure;BME280_temperature;BME280_humidity;BME280_pressure;Samples;Min_cycle;Max_cycle;Signal;HPM_P1;HPM_P2
2022/11/02 00:01:35;;;;;;;;;;;;;;;;;;5034094;28;1914;-77
2022/11/02 00:04:01;;;;;;;;;;;;;;;;;;5052563;28;1088;-76
2022/11/02 00:06:29;;;;;;;;;;;;;;;;;;5052271;28;1377;-76
2022/11/02 00:08:55;;;;;;;;;;;;;;;;;;5052105;28;1059;-75
2022/11/02 00:11:21;;;;;;;;;;;;;;;;;;5033800;28;1308;-77
2022/11/02 00:13:48;;;;;;;;;;;;;;;;;;5052132;28;1534;-75
2022/11/02 00:16:14;;;;;;;;;;;;;;;;;;5017228;28;1468;-76
2022/11/02 00:18:41;;;;;;;;;;;;;;;;;;5032220;28;1060;-78
2022/11/02 00:21:07;;;;;;;;;;;;;;;;;;5031987;28;1906;-77
2022/11/02 00:23:34;;;;;;;;;;;;;;;;;;5031823;28;1072;-77
2022/11/02 00:26:01;;;;;;;;;;;;;;;;;;5014662;28;1290;-76
2022/11/02 00:28:27;;;;;;;;;;;;;;;;;;5032150;28;909;-74
2022/11/02 00:30:53;;;;;;;;;;;;;;;;;;5033604;28;1047;-78
2022/11/02 00:33:19;;;;;;;;;;;;;;;;;;5035590;28;1048;-77
2022/11/02 00:35:46;;;;;;;;;;;;;;;;;;5036463;28;1271;-75
2022/11/02 00:38:12;;;;;;;;;;;;;;;;;;5036335;28;1059;-78
2022/11/02 00:40:40;;;;;;;;;;;;;;;;;;5018811;28;1328;-77
2022/11/02 00:43:06;;;;;;;;;;;;;;;;;;5018062;28;1926;-76
2022/11/02 00:45:32;;;;;;;;;;;;;;;;;;5018399;28;1341;-75
2022/11/02 00:47:58;;;;;;;;;;;;;;;;;;5036373;28;771;-77
2022/11/02 00:50:28;;;;;;;;;;;;;;;;;;5018261;28;1278;-75
2022/11/02 00:52:54;;;;;;;;;;;;;;;;;;5017752;28;1278;-77
2022/11/02 00:55:20;;;;;;;;;;;;;;;;;;5018598;28;1339;-75
2022/11/02 00:57:48;;;;;;;;;;;;;;;;;;5018110;28;1164;-76
2022/11/02 01:00:15;;;;;;;;;;;;;;;;;;5018124;28;1744;-79
2022/11/02 01:02:41;;;;;;;;;;;;;;;;;;5035233;28;1964;-77
2022/11/02 01:05:08;;;;;;;;;;;;;;;;;;5035640;28;1401;-77
2022/11/02 01:07:34;;;;;;;;;;;;;;;;;;5018095;28;1086;-76
2022/11/02 01:10:01;;;;;;;;;;;;;;;;;;5018460;28;1251;-78
2022/11/02 01:12:27;;;;;;;;;;;;;;;;;;5017782;28;1564;-77
2022/11/02 01:14:54;;;;;;;;;;;;;;;;;;5035769;28;1135;-75
2022/11/02 01:17:21;;;;;;;;;;;;;;;;;;5035604;28;1325;-77
2022/11/02 01:19:47;;;;;;;;;;;;;;;;;;5017694;28;1476;-76
2022/11/02 01:22:13;;;;;;;;;;;;;;;;;;5017639;28;1914;-78
2022/11/02 01:24:39;;;;;;;;;;;;;;;;;;5017948;28;1273;-77
2022/11/02 01:27:06;;;;;;;;;;;;;;;;;;5017999;28;1610;-77
2022/11/02 01:29:32;;;;;;;;;;;;;;;;;;5035263;28;739;-77
2022/11/02 01:31:59;;;;;;;;;;;;;;;;;;5034758;28;764;-76
2022/11/02 01:34:25;;;;;;;;;;;;;;;;;;5017541;28;993;-77
2022/11/02 01:36:52;;;;;;;;;;;;;;;;;;5035608;28;1381;-77
2022/11/02 01:39:18;;;;;;;;;;;;;;;;;;5035204;28;1235;-77
2022/11/02 01:41:44;;;;;;;;;;;;;;;;;;5016122;28;1918;-77
2022/11/02 01:44:27;;;;;;;;;;;;;;;;;;5017163;28;2100;-78
2022/11/02 01:46:53;;;;;;;;;;;;;;;;;;5017279;28;1366;-76
2022/11/02 01:49:21;;;;;;;;;;;;;;;;;;5016992;28;1791;-74
2022/11/02 01:51:48;;;;;;;;;;;;;;;;;;5034753;28;651;-78
2022/11/02 01:54:15;;;;;;;;;;;;;;;;;;5017085;28;1200;-78
2022/11/02 01:56:43;;;;;;;;;;;;;;;;;;5034780;28;1298;-74
2022/11/02 01:59:09;;;;;;;;;;;;;;;;;;5016710;28;1257;-78
2022/11/02 02:01:36;;;;;;;;;;;;;;;;;;5016298;28;1906;-76
2022/11/02 02:04:02;;;;;;;;;;;;;;;;;;5016999;28;1269;-77
2022/11/02 02:06:33;;;;;;;;;;;;;;;;;;5016652;28;1330;-77
2022/11/02 02:09:00;;;;;;;;;;;;;;;;;;5016972;28;1185;-74
2022/11/02 02:11:29;;;;;;;;;;;;;;;;;;5033776;28;854;-76
2022/11/02 02:13:56;;;;;;;;;;;;;;;;;;5016656;28;890;-78
2022/11/02 02:16:23;;;;;;;;;;;;;;;;;;5016567;28;2265;-77
2022/11/02 02:18:50;;;;;;;;;;;;;;;;;;5016526;28;1598;-74
2022/11/02 02:21:20;;;;;;;;;;;;;;;;;;5033725;28;806;-74
2022/11/02 02:24:12;;;;;;;;;;;;;;;;;;5019196;28;1914;-77
2022/11/02 02:26:44;;;;;;;;;;;;;;;;;;5006206;28;1357;-76
2022/11/02 02:29:13;;;;;;;;;;;;;;;;;;5016475;28;1373;-76
2022/11/02 02:31:40;;;;;;;;;;;;;;;;;;5033364;28;830;-76
2022/11/02 02:34:08;;;;;;;;;;;;;;;;;;5016533;28;1156;-77
2022/11/02 02:36:35;;;;;;;;;;;;;;;;;;5034354;28;1291;-77
2022/11/02 02:39:02;;;;;;;;;;;;;;;;;;5016503;28;1235;-77
2022/11/02 02:41:30;;;;;;;;;;;;;;;;;;5015715;28;1544;-76
2022/11/02 02:43:57;;;;;;;;;;;;;;;;;;5016417;28;1914;-76
2022/11/02 02:46:25;;;;;;;;;;;;;;;;;;5034047;28;1409;-77
2022/11/02 02:48:52;;;;;;;;;;;;;;;;;;5016487;28;1312;-77
2022/11/02 02:51:18;;;;;;;;;;;;;;;;;;5033514;28;767;-75
2022/11/02 02:53:46;;;;;;;;;;;;;;;;;;5015776;28;1633;-77
2022/11/02 02:56:16;;;;;;;;;;;;;;;;;;5016036;28;1460;-77
2022/11/02 02:58:44;;;;;;;;;;;;;;;;;;5016383;28;1343;-77
2022/11/02 03:01:10;;;;;;;;;;;;;;;;;;5015689;28;1302;-77
2022/11/02 03:03:38;;;;;;;;;;;;;;;;;;5015325;28;1910;-76
2022/11/02 03:06:09;;;;;;;;;;;;;;;;;;5033314;28;1295;-76
2022/11/02 03:08:39;;;;;;;;;;;;;;;;;;5016562;28;1527;-77
2022/11/02 03:11:08;;;;;;;;;;;;;;;;;;5015921;28;1350;-76
2022/11/02 03:13:36;;;;;;;;;;;;;;;;;;5041889;22;3464;-75
2022/11/02 03:16:04;;;;;;;;;;;;;;;;;;5067718;28;1438;-76
2022/11/02 03:18:34;;;;;;;;;;;;;;;;;;5069005;28;1449;-77
2022/11/02 03:21:03;;;;;;;;;;;;;;;;;;5068743;28;1245;-76
2022/11/02 03:23:30;;;;;;;;;;;;;;;;;;5058212;28;1994;-76
2022/11/02 03:25:59;;;;;;;;;;;;;;;;;;5031815;28;1453;-76
2022/11/02 03:28:26;;;;;;;;;;;;;;;;;;5032066;28;1834;-76
2022/11/02 03:30:54;;;;;;;;;;;;;;;;;;5031951;28;1167;-76
2022/11/02 03:33:21;;;;;;;;;;;;;;;;;;5031182;28;1308;-76
2022/11/02 03:35:48;;;;;;;;;;;;;;;;;;5031681;28;1399;-76
2022/11/02 03:38:17;;;;;;;;;;;;;;;;;;5031918;28;1163;-76
2022/11/02 03:40:44;;;;;;;;;;;;;;;;;;5031852;28;1265;-76
2022/11/02 03:43:10;;;;;;;;;;;;;;;;;;5030806;28;1927;-76
2022/11/02 03:45:38;;;;;;;;;;;;;;;;;;5031634;28;1413;-76
2022/11/02 03:48:05;;;;;;;;;;;;;;;;;;5032133;28;1238;-77
2022/11/02 03:50:32;;;;;;;;;;;;;;;;;;5031883;28;1160;-76
2022/11/02 03:52:59;;;;;;;;;;;;;;;;;;5030659;28;1399;-76
2022/11/02 03:55:29;;;;;;;;;;;;;;;;;;5032183;28;1536;-75
2022/11/02 03:57:56;;;;;;;;;;;;;;;;;;5031642;28;1187;-76
2022/11/02 04:00:26;;;;;;;;;;;;;;;;;;5031551;28;1349;-76
2022/11/02 04:02:58;;;;;;;;;;;;;;;;;;5030501;28;1969;-76
2022/11/02 04:05:29;;;;;;;;;;;;;;;;;;5031181;28;1184;-75
2022/11/02 04:14:36;;;;;;;;;;;;;;;;;;5031163;28;1620;-76
2022/11/02 04:16:12;;;;;;;;;;;;;;;;;;5031375;28;1510;-76
2022/11/02 04:21:24;;;;;;;;;;;;;;;;;;5030088;28;1180;-76
2022/11/02 04:26:36;;;;;;;;;;;;;;;;;;5011595;28;1453;-73
2022/11/02 04:29:03;;;;;;;;;;;;;;;;;;5011849;28;1598;-77
2022/11/02 04:31:29;;;;;;;;;;;;;;;;;;5012189;28;815;-76
2022/11/02 04:33:54;;;;;;;;;;;;;;;;;;5012841;28;1291;-76
2022/11/02 04:36:21;;;;;;;;;;;;;;;;;;5011678;28;1453;-76
2022/11/02 04:38:51;;;;;;;;;;;;;;;;;;5011418;28;1415;-76
2022/11/02 04:41:42;;;;;;;;;;;;;;;;;;5010652;28;1191;-75
2022/11/02 04:44:33;;;;;;;;;;;;;;;;;;5011572;28;1906;-74
2022/11/02 04:47:03;;;;;;;;;;;;;;;;;;5026659;28;1679;-76
2022/11/02 04:49:32;;;;;;;;;;;;;;;;;;5016386;28;1384;-75
2022/11/02 04:51:58;;;;;;;;;;;;;;;;;;5028171;28;1574;-76
2022/11/02 04:54:26;;;;;;;;;;;;;;;;;;5044080;28;1713;-75
2022/11/02 04:56:57;;;;;;;;;;;;;;;;;;5017905;28;1329;-75
2022/11/02 04:59:24;;;;;;;;;;;;;;;;;;5030896;28;1562;-75
2022/11/02 05:01:53;;;;;;;;;;;;;;;;;;5030277;28;1311;-74
2022/11/02 05:04:19;;;;;;;;;;;;;;;;;;5030985;28;1975;-75
2022/11/02 05:06:47;;;;;;;;;;;;;;;;;;5035293;28;1415;-74
2022/11/02 05:09:14;;;;;;;;;;;;;;;;;;5030711;28;1324;-74
2022/11/02 05:11:44;;;;;;;;;;;;;;;;;;5028310;28;1483;-74
2022/11/02 05:14:11;;;;;;;;;;;;;;;;;;5034509;28;1401;-74
2022/11/02 05:16:38;;;;;;;;;;;;;;;;;;5034939;28;1245;-74
2022/11/02 05:19:06;;;;;;;;;;;;;;;;;;5030052;28;1452;-75
2022/11/02 05:21:32;;;;;;;;;;;;;;;;;;5028508;28;1158;-75
2022/11/02 05:23:58;;;;;;;;;;;;;;;;;;5050800;28;1910;-75
2022/11/02 05:26:27;;;;;;;;;;;;;;;;;;5035953;28;889;-74
2022/11/02 05:28:53;;;;;;;;;;;;;;;;;;5035316;28;819;-75
2022/11/02 05:31:20;;;;;;;;;;;;;;;;;;5050464;28;1448;-72
2022/11/02 05:33:48;;;;;;;;;;;;;;;;;;5050765;28;1296;-74
2022/11/02 05:36:19;;;;;;;;;;;;;;;;;;5050838;28;1175;-75
2022/11/02 05:38:51;;;;;;;;;;;;;;;;;;5050305;28;1439;-74
2022/11/02 05:41:19;;;;;;;;;;;;;;;;;;5050473;28;1331;-72
2022/11/02 05:43:45;;;;;;;;;;;;;;;;;;5050257;28;1910;-74
2022/11/02 05:46:14;;;;;;;;;;;;;;;;;;5050724;28;1212;-75
2022/11/02 05:48:40;;;;;;;;;;;;;;;;;;5050283;28;1317;-73
2022/11/02 05:51:07;;;;;;;;;;;;;;;;;;5034453;28;1076;-75
2022/11/02 05:53:37;;;;;;;;;;;;;;;;;;5032951;28;1406;-75
2022/11/02 05:56:04;;;;;;;;;;;;;;;;;;5034263;28;826;-74
2022/11/02 05:58:30;;;;;;;;;;;;;;;;;;5033793;28;1107;-74
2022/11/02 06:00:58;;;;;;;;;;;;;;;;;;5033930;28;861;-74
2022/11/02 06:03:24;;;;;;;;;;;;;;;;;;5032888;28;1891;-71
2022/11/02 06:05:55;;;;;;;;;;;;;;;;;;5033641;28;1075;-74
2022/11/02 06:08:21;;;;;;;;;;;;;;;;;;5033702;28;1071;-74
2022/11/02 06:10:48;;;;;;;;;;;;;;;;;;5033515;28;1019;-74
2022/11/02 06:13:15;;;;;;;;;;;;;;;;;;5032695;28;1384;-74
2022/11/02 06:15:41;;;;;;;;;;;;;;;;;;5030077;28;1475;-74
2022/11/02 06:18:07;;;;;;;;;;;;;;;;;;5033269;28;968;-74
2022/11/02 06:20:33;;;;;;;;;;;;;;;;;;5033371;28;1064;-75
2022/11/02 06:23:00;;;;;;;;;;;;;;;;;;5031005;28;1971;-75
2022/11/02 06:25:26;;;;;;;;;;;;;;;;;;5033077;28;851;-74
2022/11/02 06:27:55;;;;;;;;;;;;;;;;;;5032112;28;1043;-74
2022/11/02 06:30:23;;;;;;;;;;;;;;;;;;5032004;28;1226;-74
2022/11/02 06:32:51;;;;;;;;;;;;;;;;;;5032202;28;1353;-73
2022/11/02 06:35:17;;;;;;;;;;;;;;;;;;5033202;28;1118;-74
2022/11/02 06:37:44;;;;;;;;;;;;;;;;;;5032557;28;1103;-74
2022/11/02 06:40:10;;;;;;;;;;;;;;;;;;5032601;28;1157;-73
2022/11/02 06:42:36;;;;;;;;;;;;;;;;;;5031836;28;1359;-74
2022/11/02 06:45:05;;;;;;;;;;;;;;;;;;5033058;28;1922;-74
2022/11/02 06:47:31;;;;;;;;;;;;;;;;;;5032709;28;1167;-74
2022/11/02 06:49:58;;;;;;;;;;;;;;;;;;5032706;28;1068;-74
2022/11/02 06:52:24;;;;;;;;;;;;;;;;;;5064122;28;1362;-72
2022/11/02 06:54:50;;;;;;;;;;;;;;;;;;5032774;28;965;-74
2022/11/02 06:57:16;;;;;;;;;;;;;;;;;;5032589;28;1140;-74
2022/11/02 06:59:42;;;;;;;;;;;;;;;;;;5032149;28;1315;-73
2022/11/02 07:02:10;;;;;;;;;;;;;;;;;;5036576;28;1339;-74
2022/11/02 07:04:36;;;;;;;;;;;;;;;;;;5039670;28;2001;-75
2022/11/02 07:07:02;;;;;;;;;;;;;;;;;;5034217;28;1328;-75
2022/11/02 07:09:28;;;;;;;;;;;;;;;;;;5031704;28;1268;-74
2022/11/02 07:11:55;;;;;;;;;;;;;;;;;;5031500;28;1099;-74
2022/11/02 07:14:21;;;;;;;;;;;;;;;;;;5032122;28;1332;-75
2022/11/02 07:16:47;;;;;;;;;;;;;;;;;;5032342;28;1216;-73
2022/11/02 07:19:15;;;;;;;;;;;;;;;;;;5032110;28;1072;-74
2022/11/02 07:21:41;;;;;;;;;;;;;;;;;;5031306;28;815;-74
2022/11/02 07:24:07;;;;;;;;;;;;;;;;;;5056954;28;1985;-75
2022/11/02 07:26:33;;;;;;;;;;;;;;;;;;5047466;28;1220;-75
2022/11/02 07:28:59;;;;;;;;;;;;;;;;;;5032008;28;1004;-75
2022/11/02 07:31:26;;;;;;;;;;;;;;;;;;5030880;28;1130;-74
2022/11/02 07:33:52;;;;;;;;;;;;;;;;;;5031845;28;1415;-75
2022/11/02 07:36:19;;;;;;;;;;;;;;;;;;5032125;28;1116;-74
2022/11/02 07:38:45;;;;;;;;;;;;;;;;;;5025787;28;1074;-74
2022/11/02 07:41:12;;;;;;;;;;;;;;;;;;5030203;28;897;-72
2022/11/02 07:43:38;;;;;;;;;;;;;;;;;;5030169;28;1919;-75
2022/11/02 07:46:16;;;;;;;;;;;;;;;;;;5031163;28;783;-75
2022/11/02 07:48:42;;;;;;;;;;;;;;;;;;5030853;28;965;-74
2022/11/02 07:51:10;;;;;;;;;;;;;;;;;;5030780;28;948;-75
2022/11/02 07:53:37;;;;;;;;;;;;;;;;;;5029703;28;1346;-74
2022/11/02 07:56:04;;;;;;;;;;;;;;;;;;5029768;28;1067;-75
2022/11/02 07:58:30;;;;;;;;;;;;;;;;;;5030466;28;845;-75
2022/11/02 08:00:57;;;;;;;;;;;;;;;;;;5030007;28;1134;-75
2022/11/02 08:03:23;;;;;;;;;;;;;;;;;;5029549;28;1914;-74
2022/11/02 08:05:49;;;;;;;;;;;;;;;;;;5030005;28;1079;-75
2022/11/02 08:08:16;;;;;;;;;;;;;;;;;;5030166;28;854;-75
2022/11/02 08:10:44;;;;;;;;;;;;;;;;;;5030212;28;805;-75
2022/11/02 08:13:12;;;;;;;;;;;;;;;;;;5026368;28;1419;-74
2022/11/02 08:15:38;;;;;;;;;;;;;;;;;;5030507;28;756;-75
2022/11/02 08:18:05;;;;;;;;;;;;;;;;;;5030359;28;1004;-75
2022/11/02 08:20:31;;;;;;;;;;;;;;;;;;5030085;28;1142;-74
2022/11/02 08:22:57;;;;;;;;;;;;;;;;;;5029500;28;1322;-75
2022/11/02 08:25:24;;;;;;;;;;;;;;;;;;5030866;28;1981;-73
2022/11/02 08:27:51;;;;;;;;;;;;;;;;;;5030175;28;953;-73
2022/11/02 08:30:18;;;;;;;;;;;;;;;;;;5030128;28;1408;-74
2022/11/02 08:32:44;;;;;;;;;;;;;;;;;;5029369;28;1293;-73
2022/11/02 08:35:10;;;;;;;;;;;;;;;;;;5030284;28;1052;-75
2022/11/02 08:37:36;;;;;;;;;;;;;;;;;;5030465;28;1104;-74
2022/11/02 08:40:03;;;;;;;;;;;;;;;;;;5028363;28;1245;-73
2022/11/02 08:42:29;;;;;;;;;;;;;;;;;;5029658;28;1291;-74
2022/11/02 08:44:56;;;;;;;;;;;;;;;;;;5029958;28;1910;-74
2022/11/02 08:47:23;;;;;;;;;;;;;;;;;;5030446;28;1031;-74
2022/11/02 08:49:50;;;;;;;;;;;;;;;;;;5029455;28;766;-74
2022/11/02 08:52:16;;;;;;;;;;;;;;;;;;5031528;28;897;-74
2022/11/02 08:54:43;;;;;;;;;;;;;;;;;;5033572;28;1411;-74
2022/11/02 08:57:09;;;;;;;;;;;;;;;;;;5034343;28;934;-74
2022/11/02 08:59:35;;;;;;;;;;;;;;;;;;5033408;28;858;-74
2022/11/02 09:02:03;;;;;;;;;;;;;;;;;;5032788;28;1131;-74
2022/11/02 09:04:29;;;;;;;;;;;;;;;;;;5033805;28;1922;-74
2022/11/02 09:06:55;;;;;;;;;;;;;;;;;;5033944;28;690;-74
2022/11/02 09:09:21;;;;;;;;;;;;;;;;;;5033345;28;1076;-74
2022/11/02 09:11:49;;;;;;;;;;;;;;;;;;5032640;28;1115;-74
2022/11/02 09:14:15;;;;;;;;;;;;;;;;;;5032046;28;1453;-74
2022/11/02 09:16:41;;;;;;;;;;;;;;;;;;5033715;28;1111;-73
2022/11/02 09:19:09;;;;;;;;;;;;;;;;;;5032698;28;993;-74
2022/11/02 09:21:35;;;;;;;;;;;;;;;;;;5032459;28;1084;-73
2022/11/02 09:24:01;;;;;;;;;;;;;;;;;;5033508;28;1914;-73
2022/11/02 09:26:27;;;;;;;;;;;;;;;;;;5033730;28;1056;-74
2022/11/02 09:28:54;;;;;;;;;;;;;;;;;;5031676;28;996;-73
2022/11/02 09:31:20;;;;;;;;;;;;;;;;;;5033348;28;1131;-72
2022/11/02 09:33:46;;;;;;;;;;;;;;;;;;5064066;22;1892;-72
2022/11/02 09:36:13;;;;;;;;;;;;;;;;;;5072558;28;1067;-72
2022/11/02 09:38:40;;;;;;;;;;;;;;;;;;5072391;28;862;-73
2022/11/02 09:41:10;;;;;;;;;;;;;;;;;;5073030;28;1103;-73
2022/11/02 09:43:39;;;;;;;;;;;;;;;;;;5073124;28;1374;-73
2022/11/02 09:46:06;;;;;;;;;;;;;;;;;;5073766;28;1973;-73
2022/11/02 09:48:33;;;;;;;;;;;;;;;;;;5073372;28;1114;-72
2022/11/02 09:51:01;;;;;;;;;;;;;;;;;;5073469;28;918;-73
2022/11/02 09:53:29;;;;;;;;;;;;;;;;;;5072858;28;1304;-73
2022/11/02 09:55:56;;;;;;;;;;;;;;;;;;5073161;28;825;-72
2022/11/02 09:58:23;;;;;;;;;;;;;;;;;;5073105;28;763;-72
2022/11/02 10:00:50;;;;;;;;;;;;;;;;;;5073253;28;1119;-72
2022/11/02 10:03:19;;;;;;;;;;;;;;;;;;5072063;28;1027;-71
2022/11/02 10:05:46;;;;;;;;;;;;;;;;;;5072567;28;1902;-72
2022/11/02 10:08:27;;;;;;;;;;;;;;;;;;5072827;28;1149;-73
2022/11/02 10:10:57;;;;;;;;;;;;;;;;;;5068033;28;1472;-72
2022/11/02 10:13:25;;;;;;;;;;;;;;;;;;5054467;28;1393;-71
2022/11/02 10:15:52;;;;;;;;;;;;;;;;;;5073051;28;898;-72
2022/11/02 10:18:19;;;;;;;;;;;;;;;;;;5054658;28;1130;-72
2022/11/02 10:20:46;;;;;;;;;;;;;;;;;;5072535;28;1131;-72
2022/11/02 10:23:14;;;;;;;;;;;;;;;;;;5072397;28;1076;-72
2022/11/02 10:25:41;;;;;;;;;;;;;;;;;;5072585;28;1915;-72
2022/11/02 10:28:11;;;;;;;;;;;;;;;;;;5072732;28;1119;-72
2022/11/02 10:30:37;;;;;;;;;;;;;;;;;;5072360;28;1111;-74
2022/11/02 10:33:04;;;;;;;;;;;;;;;;;;5072240;28;1076;-72
2022/11/02 10:35:31;;;;;;;;;;;;;;;;;;5072874;28;1356;-72
2022/11/02 10:38:03;;;;;;;;;;;;;;;;;;5072094;28;842;-72
2022/11/02 10:40:46;;;;;;;;;;;;;;;;;;5072483;28;799;-71
2022/11/02 10:43:18;;;;;;;;;;;;;;;;;;5071907;28;1111;-71
2022/11/02 10:45:48;;;;;;;;;;;;;;;;;;5072298;28;1979;-72
2022/11/02 10:48:17;;;;;;;;;;;;;;;;;;5072267;28;1092;-72
2022/11/02 10:50:46;;;;;;;;;;;;;;;;;;5071794;28;1068;-72
2022/11/02 10:53:13;;;;;;;;;;;;;;;;;;5071813;28;929;-71
2022/11/02 10:55:40;;;;;;;;;;;;;;;;;;5072083;28;1344;-73
2022/11/02 10:58:06;;;;;;;;;;;;;;;;;;5071683;28;810;-72
2022/11/02 11:00:34;;;;;;;;;;;;;;;;;;5071540;28;1115;-72
2022/11/02 11:03:04;;;;;;;;;;;;;;;;;;5071028;28;1146;-73
2022/11/02 11:05:30;;;;;;;;;;;;;;;;;;5067068;28;1906;-73
2022/11/02 11:07:56;;;;;;;;;;;;;;;;;;5047249;28;1450;-73
2022/11/02 11:10:23;;;;;;;;;;;;;;;;;;5066155;28;1231;-73
2022/11/02 11:12:49;;;;;;;;;;;;;;;;;;5065773;28;1199;-73
2022/11/02 11:15:20;;;;;;;;;;;;;;;;;;5066273;28;1383;-73
2022/11/02 11:17:47;;;;;;;;;;;;;;;;;;5064116;28;1231;-72
2022/11/02 11:20:24;;;;;;;;;;;;;;;;;;5066534;28;874;-73
2022/11/02 11:22:52;;;;;;;;;;;;;;;;;;5066531;28;1346;-72
2022/11/02 11:25:20;;;;;;;;;;;;;;;;;;5067654;28;1918;-74
2022/11/02 11:27:47;;;;;;;;;;;;;;;;;;5068322;28;1076;-73
2022/11/02 11:30:23;;;;;;;;;;;;;;;;;;5070215;28;1056;-73
2022/11/02 11:32:50;;;;;;;;;;;;;;;;;;5067877;28;1235;-71
2022/11/02 11:35:17;;;;;;;;;;;;;;;;;;5067533;28;1388;-73
2022/11/02 11:37:47;;;;;;;;;;;;;;;;;;5064010;28;1084;-72
2022/11/02 11:40:15;;;;;;;;;;;;;;;;;;5049523;28;921;-73
2022/11/02 11:42:43;;;;;;;;;;;;;;;;;;5049563;28;1224;-74
2022/11/02 11:45:14;;;;;;;;;;;;;;;;;;5050367;28;1969;-73
2022/11/02 11:47:40;;;;;;;;;;;;;;;;;;5050497;28;1075;-74
2022/11/02 11:50:12;;;;;;;;;;;;;;;;;;5051146;28;941;-77
2022/11/02 11:52:38;;;;;;;;;;;;;;;;;;5066990;28;1117;-77
2022/11/02 11:55:19;;;;;;;;;;;;;;;;;;5052520;28;1294;-77
2022/11/02 11:57:45;;;;;;;;;;;;;;;;;;5062703;28;1079;-76
2022/11/02 12:00:25;;;;;;;;;;;;;;;;;;5072509;28;1306;-77
2022/11/02 12:03:01;;;;;;;;;;;;;;;;;;5054014;28;1368;-78
2022/11/02 12:05:28;;;;;;;;;;;;;;;;;;5051784;28;1891;-77
2022/11/02 12:08:01;;;;;;;;;;;;;;;;;;5053661;28;1068;-77
2022/11/02 12:10:31;;;;;;;;;;;;;;;;;;5058642;28;775;-78
2022/11/02 12:13:01;;;;;;;;;;;;;;;;;;5057461;28;1407;-78
2022/11/02 12:15:32;;;;;;;;;;;;;;;;;;5077525;28;1366;-77
2022/11/02 12:18:02;;;;;;;;;;;;;;;;;;5076356;28;1102;-77
2022/11/02 12:20:38;;;;;;;;;;;;;;;;;;5074766;28;715;-77
2022/11/02 12:23:05;;;;;;;;;;;;;;;;;;5074528;28;1072;-77
2022/11/02 12:25:37;;;;;;;;;;;;;;;;;;5076366;28;1895;-76
2022/11/02 12:28:09;;;;;;;;;;;;;;;;;;5082714;28;1584;-78
2022/11/02 12:30:38;;;;;;;;;;;;;;;;;;5083951;28;1083;-78
2022/11/02 12:33:05;;;;;;;;;;;;;;;;;;5084358;28;949;-78
2022/11/02 12:35:35;;;;;;;;;;;;;;;;;;5083587;28;1364;-78
2022/11/02 12:38:13;;;;;;;;;;;;;;;;;;5083596;28;957;-78
2022/11/02 12:40:43;;;;;;;;;;;;;;;;;;5084138;28;1059;-78
2022/11/02 12:43:11;;;;;;;;;;;;;;;;;;5063956;28;1164;-78
2022/11/02 12:45:40;;;;;;;;;;;;;;;;;;5086262;28;1906;-78
2022/11/02 12:48:08;;;;;;;;;;;;;;;;;;5085551;28;778;-78
2022/11/02 12:50:37;;;;;;;;;;;;;;;;;;5084093;28;1131;-77
2022/11/02 12:53:12;;;;;;;;;;;;;;;;;;5085507;28;1338;-78
2022/11/02 12:55:42;;;;;;;;;;;;;;;;;;5086930;28;1318;-78
2022/11/02 12:58:10;;;;;;;;;;;;;;;;;;5087389;28;1130;-77
2022/11/02 13:00:37;;;;;;;;;;;;;;;;;;5067850;28;1199;-78
2022/11/02 13:03:04;;;;;;;;;;;;;;;;;;5085562;28;747;-77
2022/11/02 13:05:32;;;;;;;;;;;;;;;;;;5083143;28;1966;-77
2022/11/02 13:08:01;;;;;;;;;;;;;;;;;;5083345;28;810;-77
2022/11/02 13:10:28;;;;;;;;;;;;;;;;;;5083814;28;874;-78
2022/11/02 13:12:57;;;;;;;;;;;;;;;;;;5082169;28;1080;-78
2022/11/02 13:15:24;;;;;;;;;;;;;;;;;;5082586;28;1351;-79
2022/11/02 13:17:50;;;;;;;;;;;;;;;;;;5082907;28;1398;-78
2022/11/02 13:20:18;;;;;;;;;;;;;;;;;;5085186;28;1243;-79
2022/11/02 13:22:46;;;;;;;;;;;;;;;;;;5082118;28;1008;-76
2022/11/02 13:25:15;;;;;;;;;;;;;;;;;;5083062;28;1913;-79
2022/11/02 13:27:47;;;;;;;;;;;;;;;;;;5065790;28;1513;-79
2022/11/02 13:30:15;;;;;;;;;;;;;;;;;;5064067;28;1234;-79
2022/11/02 13:32:42;;;;;;;;;;;;;;;;;;5081486;28;1079;-77
2022/11/02 13:35:12;;;;;;;;;;;;;;;;;;5066069;28;1368;-80
2022/11/02 13:37:39;;;;;;;;;;;;;;;;;;5082126;28;585;-78
2022/11/02 13:40:06;;;;;;;;;;;;;;;;;;5078603;28;1508;-80
2022/11/02 13:42:39;;;;;;;;;;;;;;;;;;5059536;28;1235;-77
2022/11/02 13:45:19;;;;;;;;;;;;;;;;;;5079178;28;1399;-77
2022/11/02 13:48:00;;;;;;;;;;;;;;;;;;5078082;28;835;-78
2022/11/02 13:50:26;;;;;;;;;;;;;;;;;;5078364;28;1106;-78
2022/11/02 13:52:55;;;;;;;;;;;;;;;;;;5072640;28;1092;-76
2022/11/02 13:55:21;;;;;;;;;;;;;;;;;;5077975;28;1240;-79
2022/11/02 13:57:48;;;;;;;;;;;;;;;;;;5075306;28;822;-78
2022/11/02 14:00:28;;;;;;;;;;;;;;;;;;5077552;28;918;-80
2022/11/02 14:02:55;;;;;;;;;;;;;;;;;;5076071;28;1048;-79
2022/11/02 14:05:22;;;;;;;;;;;;;;;;;;5076212;28;1986;-77
2022/11/02 14:07:49;;;;;;;;;;;;;;;;;;5075003;28;1205;-78
2022/11/02 14:10:16;;;;;;;;;;;;;;;;;;5078492;28;742;-77
2022/11/02 14:12:42;;;;;;;;;;;;;;;;;;5076266;28;759;-77
2022/11/02 14:15:27;;;;;;;;;;;;;;;;;;5056923;28;1382;-77
2022/11/02 14:18:00;;;;;;;;;;;;;;;;;;5074173;28;1072;-77
2022/11/02 14:20:33;;;;;;;;;;;;;;;;;;5074001;28;1408;-77
2022/11/02 14:23:17;;;;;;;;;;;;;;;;;;5074081;28;1115;-77
2022/11/02 14:25:46;;;;;;;;;;;;;;;;;;5074846;28;1973;-77
2022/11/02 14:28:30;;;;;;;;;;;;;;;;;;5076136;28;1151;-76
2022/11/02 14:30:57;;;;;;;;;;;;;;;;;;5075335;28;1112;-78
2022/11/02 14:33:34;;;;;;;;;;;;;;;;;;5074867;28;1383;-78
2022/11/02 14:36:00;;;;;;;;;;;;;;;;;;5076406;28;739;-77
2022/11/02 14:38:30;;;;;;;;;;;;;;;;;;5076587;28;1052;-78
2022/11/02 14:40:57;;;;;;;;;;;;;;;;;;5078675;28;1040;-79
2022/11/02 14:43:41;;;;;;;;;;;;;;;;;;5076013;28;1350;-78
2022/11/02 14:46:07;;;;;;;;;;;;;;;;;;5074287;28;1910;-79
2022/11/02 14:48:42;;;;;;;;;;;;;;;;;;5071427;28;1334;-76
2022/11/02 14:51:11;;;;;;;;;;;;;;;;;;5072598;28;1124;-78
2022/11/02 14:53:38;;;;;;;;;;;;;;;;;;5072192;28;1324;-77
2022/11/02 14:56:04;;;;;;;;;;;;;;;;;;5071330;28;1242;-77
2022/11/02 14:58:32;;;;;;;;;;;;;;;;;;5074241;28;1221;-77
2022/11/02 15:00:59;;;;;;;;;;;;;;;;;;5073822;28;1072;-77
2022/11/02 15:03:29;;;;;;;;;;;;;;;;;;5072305;28;1367;-78
2022/11/02 15:06:00;;;;;;;;;;;;;;;;;;5071513;28;1977;-78
2022/11/02 15:08:26;;;;;;;;;;;;;;;;;;5071965;28;936;-76
2022/11/02 15:10:52;;;;;;;;;;;;;;;;;;5071406;28;985;-77
2022/11/02 15:13:22;;;;;;;;;;;;;;;;;;5070664;28;1068;-77
2022/11/02 15:15:51;;;;;;;;;;;;;;;;;;5071460;28;1088;-76
2022/11/02 15:18:22;;;;;;;;;;;;;;;;;;5071269;28;1224;-77
2022/11/02 15:21:03;;;;;;;;;;;;;;;;;;5071128;28;1091;-76
2022/11/02 15:23:30;;;;;;;;;;;;;;;;;;5069484;28;2084;-78
2022/11/02 15:25:57;;;;;;;;;;;;;;;;;;5071011;28;1906;-78
2022/11/02 15:28:23;;;;;;;;;;;;;;;;;;5071505;28;921;-78
2022/11/02 15:30:50;;;;;;;;;;;;;;;;;;5070922;28;961;-78
2022/11/02 15:33:17;;;;;;;;;;;;;;;;;;5070250;28;822;-78
2022/11/02 15:35:43;;;;;;;;;;;;;;;;;;5083581;22;3459;-79
2022/11/02 15:38:10;;;;;;;;;;;;;;;;;;5064886;28;1082;-78
2022/11/02 15:40:42;;;;;;;;;;;;;;;;;;5051055;28;1131;-78
2022/11/02 15:43:10;;;;;;;;;;;;;;;;;;5050223;28;1025;-79
2022/11/02 15:45:41;;;;;;;;;;;;;;;;;;5051089;28;1321;-77
2022/11/02 15:48:10;;;;;;;;;;;;;;;;;;5051148;28;1902;-78
2022/11/02 15:50:39;;;;;;;;;;;;;;;;;;5052239;28;763;-77
2022/11/02 15:53:10;;;;;;;;;;;;;;;;;;5050341;28;957;-79
2022/11/02 15:55:38;;;;;;;;;;;;;;;;;;5051298;28;1309;-79
2022/11/02 15:58:06;;;;;;;;;;;;;;;;;;5051927;28;1079;-78
2022/11/02 16:00:32;;;;;;;;;;;;;;;;;;5052467;28;1119;-79
2022/11/02 16:02:59;;;;;;;;;;;;;;;;;;5049937;28;767;-78
2022/11/02 16:05:26;;;;;;;;;;;;;;;;;;5051333;28;1400;-78
2022/11/02 16:07:53;;;;;;;;;;;;;;;;;;5050981;28;1965;-78
2022/11/02 16:10:21;;;;;;;;;;;;;;;;;;5034479;28;1202;-79
2022/11/02 16:12:55;;;;;;;;;;;;;;;;;;5068501;28;1231;-79
2022/11/02 16:15:21;;;;;;;;;;;;;;;;;;5075148;28;1409;-80
2022/11/02 16:17:47;;;;;;;;;;;;;;;;;;5073989;28;1314;-79
2022/11/02 16:20:14;;;;;;;;;;;;;;;;;;5072206;28;1329;-79
2022/11/02 16:22:45;;;;;;;;;;;;;;;;;;5070821;28;1243;-80
2022/11/02 16:25:13;;;;;;;;;;;;;;;;;;5070944;28;1407;-79
2022/11/02 16:27:40;;;;;;;;;;;;;;;;;;5052866;28;1971;-80
2022/11/02 16:30:19;;;;;;;;;;;;;;;;;;5071037;28;1075;-79
2022/11/02 16:32:45;;;;;;;;;;;;;;;;;;5070107;28;1048;-78
2022/11/02 16:35:15;;;;;;;;;;;;;;;;;;5070958;28;1238;-79
2022/11/02 16:37:41;;;;;;;;;;;;;;;;;;5052744;28;1148;-76
2022/11/02 16:40:12;;;;;;;;;;;;;;;;;;5052831;28;1135;-78
2022/11/02 16:42:38;;;;;;;;;;;;;;;;;;5071167;28;1071;-79
2022/11/02 16:45:05;;;;;;;;;;;;;;;;;;5054286;28;1274;-78
2022/11/02 16:47:36;;;;;;;;;;;;;;;;;;5071870;28;1906;-78
2022/11/02 16:50:17;;;;;;;;;;;;;;;;;;5071026;28;912;-77
2022/11/02 16:52:46;;;;;;;;;;;;;;;;;;5072399;28;1064;-77
2022/11/02 16:55:27;;;;;;;;;;;;;;;;;;5076563;28;1362;-79
2022/11/02 16:57:54;;;;;;;;;;;;;;;;;;5081298;28;1242;-78
2022/11/02 17:00:20;;;;;;;;;;;;;;;;;;5067845;28;1443;-80
2022/11/02 17:02:47;;;;;;;;;;;;;;;;;;5084198;28;1358;-80
2022/11/02 17:05:17;;;;;;;;;;;;;;;;;;5083745;28;1462;-78
2022/11/02 17:07:44;;;;;;;;;;;;;;;;;;5087835;28;1971;-81
2022/11/02 17:10:19;;;;;;;;;;;;;;;;;;5069270;28;1338;-80
2022/11/02 17:12:45;;;;;;;;;;;;;;;;;;5081287;28;1296;-79
2022/11/02 17:15:14;;;;;;;;;;;;;;;;;;5086590;28;1421;-81
2022/11/02 17:17:40;;;;;;;;;;;;;;;;;;5073803;28;1523;-80
2022/11/02 17:20:15;;;;;;;;;;;;;;;;;;5019935;28;1063;-80
2022/11/02 17:22:49;;;;;;;;;;;;;;;;;;5014941;28;862;-79
2022/11/02 17:25:19;;;;;;;;;;;;;;;;;;5002559;28;1409;-80